Latest Coastal Weather Observations for Ballina

IDN60701

Issued at 7:25 am EDT Tuesday 25 November 2014 (issued every 10 minutes, with the page automatically refreshed every 10 minutes)

About coastal observations | Map of coastal stations | Coastal observations for NSW | Marine services | Other Formats
Station Details ID: 058198 Name: BALLINA AIRPORT AWS Lat: -28.84 Lon: 153.56 Height: 1.3 m
Data from the previous 72 hours. | See also: Recent months at Ballina
Date/Time
EDT
Temp

°C
Wind Pressure Rain
since 9am
mm
Weather Cloud Vis
km
Sea
Height
m
Swell
Dir
 
Speed
knots
Gust
knots
hPa Trend Height
m
Period
s
Dir
25/07:00am 22.3 N 9 11 1013.4 - 0.0 - - 10 - - - -
25/06:30am 21.5 N 11 14 1013.1 - 0.0 - - 10 - - - -
25/06:00am 21.3 N 9 12 1012.9 - 0.0 - - 10 - - - -
25/05:30am 21.4 NNE 7 9 1012.7 - 0.0 - - 10 - - - -
25/05:00am 21.8 N 7 10 1012.6 - 0.0 - - 10 - - - -
25/04:30am 22.1 N 11 16 1011.8 - 0.0 - - 10 - - - -
25/04:00am 22.3 N 10 14 1012.0 - 0.0 - - 10 - - - -
25/03:30am 22.2 N 11 16 1011.7 - 0.0 - - 10 - - - -
25/03:00am 22.3 N 12 19 1011.5 - 0.0 - - 10 - - - -
25/02:30am 22.4 N 14 20 1011.7 - 0.0 - - 10 - - - -
25/02:00am 22.6 N 14 19 1012.1 - 0.0 - - 10 - - - -
25/01:30am 22.7 N 15 21 1012.1 - 0.0 - - 10 - - - -
25/01:00am 22.8 N 17 25 1012.1 - 0.0 - - 10 - - - -
25/12:30am 22.9 N 16 23 1012.6 - 0.0 - - 10 - - - -
25/12:21am 22.9 N 16 26 1012.7 - 0.0 - - 10 - - - -
25/12:00am 22.9 N 16 25 1012.9 - 0.0 - - 10 - - - -
 
Date/Time
EDT
Temp

°C
Wind Pressure Rain
since 9am
mm
Weather Cloud Vis
km
Sea
Height
m
Swell
Dir
 
Speed
knots
Gust
knots
hPa Trend Height
m
Period
s
Dir
24/11:30pm 23.1 N 16 24 1013.2 - 0.0 - - 10 - - - -
24/11:00pm 23.1 N 16 24 1013.4 - 0.0 - - 10 - - - -
24/10:30pm 23.0 N 15 23 1013.4 - 0.0 - - 10 - - - -
24/10:10pm 23.0 NNE 15 25 1013.2 - 0.0 - - 10 - - - -
24/10:00pm 22.9 N 13 23 1013.0 - 0.0 - - 10 - - - -
24/09:36pm 22.8 NNE 15 25 1012.9 - 0.0 - - 10 - - - -
24/09:30pm 22.9 N 16 23 1012.7 - 0.0 - - 10 - - - -
24/09:00pm 22.9 NNE 16 27 1012.4 - 0.0 - - 10 - - - -
24/08:46pm 22.9 N 16 26 1012.3 - 0.0 - - 10 - - - -
24/08:30pm 23.0 N 18 27 1012.0 - 0.0 - - 10 - - - -
24/08:00pm 23.3 N 19 30 1011.7 - 0.0 - - 10 - - - -
24/07:31pm 23.6 NNE 18 29 1011.2 - 0.0 - - 10 - - - -
24/07:30pm 23.5 N 18 26 1011.3 - 0.0 - - 10 - - - -
24/07:00pm 24.2 N 16 27 1011.1 - 0.0 - - 10 - - - -
24/06:30pm 24.9 N 18 29 1010.9 - 0.0 - - 10 - - - -
24/06:00pm 25.4 N 19 29 1010.6 - 0.0 - - 10 - - - -
24/05:37pm 25.7 N 19 29 1010.5 - 0.0 - - 10 - - - -
24/05:30pm 25.8 N 19 27 1010.6 - 0.0 - - 10 - - - -
24/05:04pm 25.4 N 17 28 1010.7 - 0.0 - - 10 - - - -
24/05:00pm 25.6 N 17 26 1010.8 - 0.0 - - 10 - - - -
24/04:39pm 25.9 N 17 27 1011.0 - 0.0 - - 10 - - - -
24/04:30pm 25.9 N 18 25 1011.2 - 0.0 - - 10 - - - -
24/04:08pm 26.5 N 15 27 1011.5 - 0.0 - - 10 - - - -
24/04:00pm 27.3 NNE 15 24 1011.6 - 0.0 - - 10 - - - -
24/03:37pm 26.8 N 18 28 1011.7 - 0.0 - - 10 - - - -
24/03:30pm 26.9 N 19 27 1011.9 - 0.0 - - 10 - - - -
24/03:00pm 28.1 N 21 28 1012.2 - 0.0 - - 10 - - - -
24/02:30pm 28.4 N 20 29 1012.8 - 0.0 - - 10 - - - -
24/02:00pm 28.5 N 19 26 1013.2 - 0.0 - - 10 - - - -
24/01:50pm 28.5 NNE 17 27 1013.4 - 0.0 - - 10 - - - -
24/01:30pm 28.2 N 19 25 1013.5 - 0.0 - - 10 - - - -
24/01:00pm 29.2 N 17 25 1014.1 - 0.0 - - 10 - - - -
24/12:30pm 29.5 NNE 17 24 1014.4 - 0.0 - - 10 - - - -
24/12:00pm 28.9 NNE 16 23 1014.8 - 0.0 - - 10 - - - -
24/11:30am 29.4 N 13 19 1015.1 - 0.0 - - 10 - - - -
24/11:00am 27.7 N 14 21 1015.4 - 0.0 - - 10 - - - -
24/10:30am 28.9 N 12 17 1015.7 - 0.0 - - 10 - - - -
24/10:00am 27.8 N 15 21 1016.0 - 0.0 - - 10 - - - -
24/09:30am 27.2 N 14 20 1016.1 - 0.0 - - 10 - - - -
24/09:00am 26.3 N 13 20 1016.5 - 0.0 - - 10 - - - -
24/08:30am 25.7 N 15 22 1016.6 - 0.0 - - 10 - - - -
24/08:00am 25.0 N 14 20 1016.4 - 0.0 - - 10 - - - -
24/07:30am 24.4 N 13 18 1016.1 - 0.0 - - 10 - - - -
24/07:00am 23.5 N 12 18 1016.1 - 0.0 - - 10 - - - -
24/06:30am 22.7 NNE 9 14 1016.1 - 0.0 - - 10 - - - -
24/06:00am 22.4 NNE 12 17 1015.7 - 0.0 - - 10 - - - -
24/05:30am 22.4 N 9 14 1015.7 - 0.0 - - 10 - - - -
24/05:00am 22.5 N 10 13 1015.2 - 0.0 - - 10 - - - -
24/04:30am 22.7 N 11 17 1014.9 - 0.0 - - 10 - - - -
24/04:00am 22.8 N 13 17 1014.8 - 0.0 - - 10 - - - -
24/03:30am 22.9 N 12 16 1015.0 - 0.0 - - 10 - - - -
24/03:00am 23.0 N 14 21 1014.7 - 0.0 - - 10 - - - -
24/02:30am 22.9 N 14 21 1014.6 - 0.0 - - 10 - - - -
24/02:18am 23.0 N 16 26 1014.5 - 0.0 - - 10 - - - -
24/02:00am 23.0 N 15 21 1014.8 - 0.0 - - 10 - - - -
24/01:30am 23.0 NNE 15 20 1015.2 - 0.0 - - 10 - - - -
24/01:00am 23.2 N 13 22 1015.6 - 0.0 - - 10 - - - -
24/12:30am 23.2 N 11 16 1015.8 - 0.0 - - 10 - - - -
24/12:00am 23.3 NNE 11 17 1015.9 - 0.0 - - 10 - - - -
 
Date/Time
EDT
Temp

°C
Wind Pressure Rain
since 9am
mm
Weather Cloud Vis
km
Sea
Height
m
Swell
Dir
 
Speed
knots
Gust
knots
hPa Trend Height
m
Period
s
Dir
23/11:30pm 23.4 NNE 13 19 1015.8 - 0.0 - - 10 - - - -
23/11:00pm 23.3 NNE 15 21 1015.6 - 0.0 - - 10 - - - -
23/10:30pm 23.3 NNE 14 20 1015.2 - 0.0 - - 10 - - - -
23/10:00pm 23.3 N 10 15 1015.6 - 0.0 - - 10 - - - -
23/09:30pm 23.5 N 10 16 1015.4 - 0.0 - - 10 - - - -
23/09:00pm 23.7 N 14 20 1015.1 - 0.0 - - 10 - - - -
23/08:30pm 23.7 N 11 15 1014.7 - 0.0 - - 10 - - - -
23/08:00pm 24.0 N 12 18 1014.4 - 0.0 - - 10 - - - -
23/07:30pm 24.1 N 12 17 1013.9 - 0.0 - - 10 - - - -
23/07:00pm 24.3 N 13 19 1013.0 - 0.0 - - 10 - - - -
23/06:30pm 24.5 N 13 20 1012.8 - 0.0 - - 10 - - - -
23/06:00pm 24.9 N 13 21 1012.3 - 0.0 - - 10 - - - -
23/05:30pm 25.2 N 15 21 1012.4 - 0.0 - - 10 - - - -
23/05:00pm 25.4 N 14 21 1012.6 - 0.0 - - 10 - - - -
23/04:30pm 25.5 N 14 22 1012.7 - 0.0 - - 10 - - - -
23/04:16pm 25.7 N 15 26 1012.6 - 0.0 - - 10 - - - -
23/04:00pm 25.8 N 16 23 1012.5 - 0.0 - - 10 - - - -
23/03:30pm 26.1 N 17 26 1012.9 - 0.0 - - 10 - - - -
23/03:00pm 27.1 N 16 27 1013.0 - 0.0 - - 10 - - - -
23/02:43pm 28.1 N 17 27 1013.1 - 0.0 - - 10 - - - -
23/02:30pm 28.7 N 20 28 1013.3 - 0.0 - - 10 - - - -
23/02:06pm 28.4 N 19 29 1013.5 - 0.0 - - 10 - - - -
23/02:00pm 28.8 N 19 26 1013.6 - 0.0 - - 10 - - - -
23/01:30pm 29.0 N 18 24 1014.0 - 0.0 - - 10 - - - -
23/01:04pm 28.5 N 19 29 1014.3 - 0.0 - - 10 - - - -
23/01:00pm 29.0 N 19 27 1014.5 - 0.0 - - 10 - - - -
23/12:30pm 28.6 N 19 27 1015.0 - 0.0 - - 10 - - - -
23/12:00pm 28.8 N 17 24 1015.2 - 0.0 - Mostly clear 10 - - - -
23/11:55am 29.0 N 17 27 1015.4 - 0.0 - - 10 - - - -
23/11:30am 28.5 N 17 25 1015.7 - 0.0 - - 10 - - - -
23/11:00am 28.6 N 15 23 1016.0 - 0.0 - - 10 - - - -
23/10:30am 28.6 NNE 13 19 1016.4 - 0.0 - - 10 - - - -
23/10:00am 27.8 NNE 15 21 1016.2 - 0.0 - - 10 - - - -
23/09:30am 27.7 NNE 14 22 1016.3 - 0.0 - - 10 - - - -
23/09:00am 27.1 N 13 19 1016.5 - 0.0 - Mostly clear 10 - - - -
23/08:30am 26.4 N 13 18 1016.5 - 0.0 - - 10 - - - -
23/08:00am 25.7 N 10 14 1016.6 - 0.0 - - 10 - - - -
23/07:30am 24.7 N 8 10 1016.5 - 0.0 - - 10 - - - -
23/07:00am 24.0 N 7 10 1016.2 - 0.0 - - 10 - - - -
23/06:30am 23.6 N 8 11 1015.8 - 0.0 - - 10 - - - -
23/06:00am 23.4 N 10 15 1015.1 - 0.0 - - 10 - - - -
23/05:30am 23.3 N 10 15 1014.8 - 0.0 - Partly cloudy 10 - - - -
23/05:00am 23.3 N 11 16 1014.1 - 0.0 - Partly cloudy 10 - - - -
23/04:30am 23.1 NNE 13 18 1013.9 - 0.0 - - 10 - - - -
23/04:00am 23.1 NNE 12 16 1013.8 - 0.0 - - 10 - - - -
23/03:30am 23.2 NNE 10 15 1013.8 - 0.0 - - 10 - - - -
23/03:00am 23.3 N 11 15 1013.8 - 0.0 - - 10 - - - -
23/02:30am 23.4 NNE 12 17 1013.9 - 0.0 - - 10 - - - -
23/02:00am 23.4 NNE 12 21 1014.2 - 0.0 - - 10 - - - -
23/01:30am 23.6 N 11 19 1014.3 - 0.0 - - 10 - - - -
23/01:00am 23.7 N 11 18 1014.6 - 0.0 - - 10 - - - -
23/12:30am 23.7 N 9 13 1014.8 - 0.0 - - 10 - - - -
23/12:00am 24.0 N 11 18 1014.9 - 0.0 - - 10 - - - -
 
Date/Time
EDT
Temp

°C
Wind Pressure Rain
since 9am
mm
Weather Cloud Vis
km
Sea
Height
m
Swell
Dir
 
Speed
knots
Gust
knots
hPa Trend Height
m
Period
s
Dir
22/11:30pm 23.9 N 12 20 1014.7 - 0.0 - - 10 - - - -
22/11:00pm 24.0 N 15 21 1014.4 - 0.0 - - 10 - - - -
22/10:30pm 24.0 N 13 18 1014.4 - 0.0 - - 10 - - - -
22/10:00pm 24.0 N 12 18 1014.1 - 0.0 - - 10 - - - -
22/09:30pm 24.1 N 15 23 1013.6 - 0.0 - - 10 - - - -
22/09:13pm 24.1 N 15 25 1013.3 - 0.0 - - 10 - - - -
22/09:00pm 24.1 N 15 23 1013.2 - 0.0 - - 10 - - - -
22/08:39pm 24.1 N 15 25 1012.9 - 0.0 - - 10 - - - -
22/08:30pm 24.1 N 14 23 1012.7 - 0.0 - - 10 - - - -
22/08:00pm 24.3 NNE 13 21 1012.5 - 0.0 - - 10 - - - -
22/07:30pm 24.6 NNE 15 22 1012.1 - 0.0 - - 10 - - - -
22/07:00pm 25.4 N 12 17 1011.7 - 0.0 - - 10 - - - -
22/06:30pm 25.9 NNE 14 21 1011.1 - 0.0 - - 10 - - - -
22/06:00pm 26.0 N 15 27 1010.8 - 0.0 - - 10 - - - -
22/05:59pm 26.1 N 15 27 1010.8 - 0.0 - - 10 - - - -
22/05:30pm 25.9 N 17 24 1010.6 - 0.0 - - 10 - - - -
22/05:00pm 26.1 N 16 21 1010.4 - 0.0 - - 10 - - - -
22/04:30pm 26.2 N 15 20 1010.7 - 0.0 - - 10 - - - -
22/04:00pm 26.8 N 15 20 1011.1 - 0.0 - - 10 - - - -
22/03:30pm 27.8 N 14 20 1011.2 - 0.0 - - 10 - - - -
22/03:00pm 27.9 N 18 23 1011.5 - 0.0 - - 10 - - - -
22/02:30pm 29.1 NNE 17 25 1011.6 - 0.0 - - 10 - - - -
22/02:00pm 29.4 N 16 25 1011.6 - 0.0 - - 10 - - - -
22/01:30pm 29.6 N 18 23 1011.8 - 0.0 - - 10 - - - -
22/01:00pm 29.7 N 16 22 1012.0 - 0.0 - - 10 - - - -
22/12:30pm 30.0 N 14 21 1012.5 - 0.0 - - 10 - - - -
22/12:00pm 30.4 N 12 16 1012.7 - 0.0 - Mostly clear 10 - - - -
22/11:30am 30.4 NNE 13 15 1012.9 - 0.0 - - 10 - - - -
22/11:00am 29.6 N 11 16 1013.2 - 0.0 - - 10 - - - -
22/10:30am 28.5 N 13 17 1013.4 - 0.0 - - 10 - - - -
22/10:00am 27.8 NNE 14 19 1013.5 - 0.0 - - 10 - - - -
22/09:30am 28.4 N 10 14 1013.7 - 0.0 - - 10 - - - -
22/09:00am 27.4 NNE 10 14 1013.7 - 0.0 - - 10 - - - -
22/08:30am 25.5 NNE 7 10 1013.7 - 0.0 - Partly cloudy 10 - - - -
22/08:00am 25.2 N 7 10 1013.6 - 0.0 - Partly cloudy 10 - - - -
22/07:30am 24.8 NNE 9 14 1012.9 - 0.0 - Partly cloudy 10 - - - -

Other Formats:

Comma delimited format used in spreadsheet applications
http://www.bom.gov.au/fwo/IDN60701/IDN60701.94596.axf

JavaScript Object Notation format (JSON) in row-major order
http://www.bom.gov.au/fwo/IDN60701/IDN60701.94596.json